createdAt,value
2018-09-05T00:01:26.983Z,86.60
2018-09-05T00:04:03.610Z,86.50
2018-09-05T00:06:36.728Z,86.70
2018-09-05T00:09:12.922Z,87.00
2018-09-05T00:11:46.324Z,87.40
2018-09-05T00:14:22.126Z,87.00
2018-09-05T00:16:54.166Z,87.30
2018-09-05T00:19:26.143Z,87.30
2018-09-05T00:22:01.410Z,87.30
2018-09-05T00:24:36.290Z,87.60
2018-09-05T00:27:09.691Z,87.70
2018-09-05T00:29:44.814Z,88.50
2018-09-05T00:32:20.714Z,90.00
2018-09-05T00:34:57.415Z,89.60
2018-09-05T00:37:32.261Z,90.30
2018-09-05T00:40:07.514Z,90.50
2018-09-05T00:42:43.328Z,90.50
2018-09-05T00:45:17.654Z,90.40
2018-09-05T00:47:54.606Z,90.50
2018-09-05T00:50:31.817Z,90.50
2018-09-05T00:53:05.306Z,90.30
2018-09-05T00:55:42.086Z,90.10
2018-09-05T00:58:13.207Z,90.10
2018-09-05T01:00:49.331Z,89.90
2018-09-05T01:03:27.552Z,89.90
2018-09-05T01:05:59.210Z,89.70
2018-09-05T01:08:34.424Z,90.00
2018-09-05T01:11:10.399Z,89.80
2018-09-05T01:13:44.026Z,89.60
2018-09-05T01:16:18.186Z,89.50
2018-09-05T01:18:52.006Z,89.80
2018-09-05T01:21:27.463Z,89.80
2018-09-05T01:24:03.004Z,89.70
2018-09-05T01:26:36.442Z,89.60
2018-09-05T01:29:11.906Z,89.60
2018-09-05T01:31:45.208Z,89.50
2018-09-05T01:34:19.771Z,89.50
2018-09-05T01:36:54.916Z,89.30
2018-09-05T01:39:26.063Z,89.30
2018-09-05T01:41:58.294Z,89.30
2018-09-05T01:44:33.246Z,89.80
2018-09-05T01:47:06.847Z,89.70
2018-09-05T01:49:42.515Z,89.60
2018-09-05T01:52:15.802Z,89.70
2018-09-05T01:54:51.230Z,89.60
2018-09-05T01:57:25.214Z,89.40
2018-09-05T01:59:58.830Z,89.60
2018-09-05T02:02:34.653Z,89.60
2018-09-05T02:05:08.461Z,89.40
2018-09-05T02:07:44.123Z,89.30
2018-09-05T02:10:18.954Z,89.70
2018-09-05T02:12:52.090Z,89.50
2018-09-05T02:15:27.699Z,89.90
2018-09-05T02:18:00.742Z,89.80
2018-09-05T02:20:33.691Z,89.80
2018-09-05T02:23:13.399Z,89.80
2018-09-05T02:25:45.779Z,89.60
2018-09-05T02:28:21.882Z,89.60
2018-09-05T02:30:56.362Z,89.80
2018-09-05T02:33:29.741Z,89.80
2018-09-05T02:36:06.124Z,90.00
2018-09-05T02:38:42.974Z,90.00
2018-09-05T02:41:15.434Z,90.10
2018-09-05T02:43:54.535Z,90.20
2018-09-05T02:46:28.152Z,90.40
2018-09-05T02:49:03.799Z,90.10
2018-09-05T02:51:41.549Z,90.20
2018-09-05T02:54:14.146Z,90.10
2018-09-05T02:56:49.080Z,90.20
2018-09-05T02:59:22.172Z,90.40
2018-09-05T03:01:55.383Z,90.30
2018-09-05T03:04:38.886Z,90.30
2018-09-05T03:07:11.473Z,90.30
2018-09-05T03:09:48.040Z,90.30
2018-09-05T03:12:25.272Z,90.40
2018-09-05T03:14:59.859Z,90.30
2018-09-05T03:17:34.566Z,90.40
2018-09-05T03:20:10.015Z,90.40
2018-09-05T03:22:42.083Z,90.50
2018-09-05T03:25:16.126Z,90.60
2018-09-05T03:27:47.811Z,90.60
2018-09-05T03:30:22.696Z,90.60
2018-09-05T03:32:58.887Z,90.60
2018-09-05T03:35:31.450Z,90.70
2018-09-05T03:38:06.270Z,90.80
2018-09-05T03:40:46.117Z,90.80
2018-09-05T03:43:19.018Z,90.80
2018-09-05T03:45:54.634Z,90.90
2018-09-05T03:48:26.171Z,91.00
2018-09-05T03:51:00.789Z,90.90
2018-09-05T03:53:35.542Z,90.90
2018-09-05T03:56:07.945Z,90.90
2018-09-05T03:58:43.090Z,90.90
2018-09-05T04:01:14.550Z,90.80
2018-09-05T04:03:46.884Z,90.80
2018-09-05T04:06:23.315Z,90.80
2018-09-05T04:08:55.197Z,90.70
2018-09-05T04:11:29.834Z,90.90
2018-09-05T04:14:06.511Z,90.80
2018-09-05T04:16:38.851Z,90.70
2018-09-05T04:19:15.468Z,90.70
2018-09-05T04:21:47.727Z,90.70
2018-09-05T04:24:23.909Z,90.70
2018-09-05T04:26:59.638Z,90.80
2018-09-05T04:29:32.732Z,90.80
2018-09-05T04:32:08.403Z,90.70
2018-09-05T04:34:41.271Z,90.60
2018-09-05T04:37:13.410Z,90.60
2018-09-05T04:39:47.917Z,90.60
2018-09-05T04:42:19.283Z,90.70
2018-09-05T04:44:55.013Z,90.60
2018-09-05T04:47:27.865Z,90.70
2018-09-05T04:50:00.168Z,90.80
2018-09-05T04:52:35.053Z,90.80
2018-09-05T04:55:07.378Z,90.80
2018-09-05T04:57:42.586Z,90.90
2018-09-05T05:03:13.485Z,91.00
2018-09-05T05:05:48.064Z,91.00
2018-09-05T05:08:24.216Z,91.00
2018-09-05T05:10:55.808Z,91.10
2018-09-05T05:13:30.976Z,91.20
2018-09-05T05:16:03.931Z,91.20
2018-09-05T05:18:40.836Z,91.30
2018-09-05T05:21:16.088Z,91.40
2018-09-05T05:23:50.103Z,91.50
2018-09-05T05:26:30.795Z,91.60
2018-09-05T05:29:07.224Z,91.60
2018-09-05T05:31:44.542Z,92.00
2018-09-05T05:34:19.743Z,92.00
2018-09-05T05:36:56.615Z,91.90
2018-09-05T05:39:36.733Z,92.20
2018-09-05T05:42:13.847Z,92.40
2018-09-05T05:44:49.997Z,92.40
2018-09-05T05:47:25.865Z,92.50
2018-09-05T05:50:05.416Z,92.50
2018-09-05T05:52:39.765Z,92.60
2018-09-05T05:55:14.718Z,92.70
2018-09-05T05:57:55.633Z,92.70
2018-09-05T06:00:31.133Z,92.90
2018-09-05T06:03:12.131Z,93.10
2018-09-05T06:05:49.121Z,93.30
2018-09-05T06:08:38.487Z,93.80
2018-09-05T06:11:12.472Z,93.90
2018-09-05T06:22:48.600Z,94.00
2018-09-05T06:25:29.707Z,94.10
2018-09-05T06:33:32.730Z,94.10
2018-09-05T06:36:06.859Z,94.50
2018-09-05T06:38:47.667Z,94.20
2018-09-05T06:41:41.969Z,94.30
2018-09-05T06:44:35.682Z,94.80
2018-09-05T07:10:41.106Z,95.10
2018-09-05T07:13:29.543Z,95.50
2018-09-05T07:25:14.655Z,95.20
2018-09-05T07:33:43.601Z,95.00
2018-09-05T07:49:08.799Z,94.60
2018-09-05T07:51:45.087Z,94.40
2018-09-05T07:54:16.191Z,94.50
2018-09-05T07:56:53.049Z,93.70
2018-09-05T07:59:26.003Z,93.90
2018-09-05T08:02:01.946Z,93.50
2018-09-05T08:04:33.340Z,92.70
2018-09-05T08:07:18.832Z,93.10
2018-09-05T08:10:19.199Z,93.10
2018-09-05T08:12:53.628Z,92.60
2018-09-05T08:15:40.330Z,92.60
2018-09-05T08:18:18.200Z,91.40
2018-09-05T08:20:56.952Z,91.30
2018-09-05T08:23:32.366Z,92.00
2018-09-05T08:26:07.324Z,91.50
2018-09-05T08:28:46.244Z,91.50
2018-09-05T08:31:19.817Z,91.50
2018-09-05T08:33:54.227Z,91.10
2018-09-05T08:36:29.471Z,91.10
2018-09-05T08:39:12.413Z,91.00
2018-09-05T08:41:47.961Z,90.30
2018-09-05T08:44:24.350Z,90.20
2018-09-05T08:46:57.818Z,91.10
2018-09-05T08:49:32.188Z,90.60
2018-09-05T08:52:08.176Z,89.00
2018-09-05T08:54:42.398Z,88.50
2018-09-05T08:57:20.923Z,88.90
2018-09-05T08:59:53.717Z,89.50
2018-09-05T09:02:30.073Z,88.80
2018-09-05T09:05:04.077Z,87.20
2018-09-05T09:07:39.924Z,88.20
2018-09-05T09:10:15.988Z,87.00
2018-09-05T09:12:52.221Z,87.60
2018-09-05T09:15:27.076Z,86.10
2018-09-05T09:18:00.671Z,84.70
2018-09-05T09:20:33.115Z,82.60
2018-09-05T09:23:10.309Z,81.10
2018-09-05T09:25:52.803Z,79.80
2018-09-05T09:28:28.745Z,79.40
2018-09-05T09:31:11.028Z,79.20
2018-09-05T09:36:58.986Z,74.70
2018-09-05T09:40:39.133Z,75.90
2018-09-05T09:47:34.477Z,73.90
2018-09-05T10:13:43.826Z,74.40
2018-09-05T10:16:25.166Z,74.30
2018-09-05T10:19:01.478Z,74.60
2018-09-05T10:21:37.609Z,76.00
2018-09-05T10:24:29.550Z,75.10
2018-09-05T10:27:17.040Z,74.70
2018-09-05T10:30:04.869Z,73.20
2018-09-05T10:35:47.838Z,74.00
2018-09-05T10:38:24.517Z,72.40
2018-09-05T10:41:15.307Z,72.20
2018-09-05T10:43:46.369Z,73.00
2018-09-05T10:46:23.402Z,71.50
2018-09-05T10:48:59.113Z,69.90
2018-09-05T11:02:28.244Z,71.20
2018-09-05T11:04:59.301Z,70.20
2018-09-05T11:07:43.865Z,69.10
2018-09-05T11:10:21.869Z,67.20
2018-09-05T11:28:20.998Z,63.60
2018-09-05T11:30:55.311Z,66.30
2018-09-05T11:33:33.888Z,64.20
2018-09-05T11:36:18.629Z,62.60
2018-09-05T11:38:56.077Z,62.40
2018-09-05T11:45:47.222Z,63.80
2018-09-05T11:48:24.205Z,59.60
2018-09-05T12:25:55.935Z,55.90
2018-09-05T12:28:30.227Z,55.70
2018-09-05T12:30:59.283Z,54.30
2018-09-05T12:36:03.690Z,54.20
2018-09-05T12:38:33.305Z,53.00
2018-09-05T12:41:03.502Z,52.80
2018-09-05T12:43:36.117Z,53.50
2018-09-05T12:46:07.519Z,53.80
2018-09-05T12:48:42.454Z,52.50
2018-09-05T12:51:13.491Z,53.70
2018-09-05T12:53:47.461Z,51.70
2018-09-05T12:56:19.270Z,53.50
2018-09-05T12:58:54.807Z,52.50
2018-09-05T13:01:25.803Z,53.20
2018-09-05T13:04:03.213Z,52.50
2018-09-05T13:06:36.967Z,51.50
2018-09-05T13:09:11.850Z,50.80
2018-09-05T13:11:47.016Z,52.70
2018-09-05T13:14:20.766Z,52.50
2018-09-05T13:16:56.626Z,51.40
2018-09-05T13:19:29.532Z,51.10
2018-09-05T13:22:01.218Z,51.00
2018-09-05T13:24:34.456Z,52.40
2018-09-05T13:27:06.692Z,51.70
2018-09-05T13:29:39.775Z,52.00
2018-09-05T13:32:12.551Z,51.20
2018-09-05T13:34:44.798Z,51.60
2018-09-05T13:37:17.090Z,51.50
2018-09-05T13:39:50.711Z,52.50
2018-09-05T13:42:25.416Z,52.10
2018-09-05T13:45:01.297Z,52.20
2018-09-05T13:47:32.018Z,52.30
2018-09-05T13:50:03.877Z,52.80
2018-09-05T13:52:36.122Z,53.30
2018-09-05T13:55:08.479Z,52.70
2018-09-05T13:57:41.558Z,52.00
2018-09-05T14:00:17.048Z,52.70
2018-09-05T14:02:48.801Z,53.80
2018-09-05T14:05:22.249Z,53.90
2018-09-05T14:07:53.348Z,53.00
2018-09-05T14:10:25.994Z,52.80
2018-09-05T14:12:58.639Z,54.30
2018-09-05T14:15:31.271Z,53.80
2018-09-05T14:18:04.602Z,54.10
2018-09-05T14:20:37.092Z,53.90
2018-09-05T14:23:07.651Z,54.10
2018-09-05T14:25:36.901Z,53.90
2018-09-05T14:28:04.743Z,53.20
2018-09-05T14:30:32.317Z,52.40
2018-09-05T14:33:00.333Z,51.40
2018-09-05T14:35:27.888Z,52.20
2018-09-05T14:37:55.577Z,52.60
2018-09-05T14:40:23.639Z,52.70
2018-09-05T14:42:51.564Z,51.90
2018-09-05T14:45:19.128Z,51.00
2018-09-05T14:47:46.897Z,50.80
2018-09-05T14:50:14.418Z,50.20
2018-09-05T14:52:41.987Z,49.50
2018-09-05T14:55:10.562Z,50.00
2018-09-05T14:57:39.950Z,49.70
2018-09-05T15:00:07.636Z,49.60
2018-09-05T15:02:35.252Z,48.80
2018-09-05T15:05:02.926Z,49.30
2018-09-05T15:07:30.660Z,49.50
2018-09-05T15:09:58.336Z,48.70
2018-09-05T15:12:25.883Z,49.80
2018-09-05T15:14:57.143Z,49.50
2018-09-05T15:17:34.849Z,48.60
2018-09-05T15:20:08.930Z,48.80
2018-09-05T15:22:45.403Z,47.50
2018-09-05T15:25:19.529Z,48.90
2018-09-05T15:27:54.523Z,48.90
2018-09-05T15:30:28.753Z,48.30
2018-09-05T15:33:01.484Z,49.00
2018-09-05T15:35:40.040Z,49.30
2018-09-05T15:38:16.549Z,48.50
2018-09-05T15:40:50.613Z,49.20
2018-09-05T15:43:26.027Z,49.20
2018-09-05T15:45:55.175Z,49.00
2018-09-05T15:48:23.554Z,50.10
2018-09-05T15:50:54.466Z,48.40
2018-09-05T15:53:28.654Z,48.90
2018-09-05T15:55:56.341Z,49.30
2018-09-05T15:58:24.397Z,48.00
2018-09-05T16:00:51.987Z,49.60
2018-09-05T16:03:19.628Z,50.20
2018-09-05T16:05:47.813Z,50.40
2018-09-05T16:08:15.533Z,49.00
2018-09-05T16:10:43.167Z,49.20
2018-09-05T16:13:10.765Z,50.10
2018-09-05T16:15:38.381Z,49.70
2018-09-05T16:18:06.946Z,49.90
2018-09-05T16:20:35.417Z,50.50
2018-09-05T16:23:03.022Z,51.10
2018-09-05T16:25:30.621Z,51.00
2018-09-05T16:27:58.299Z,50.40
2018-09-05T16:30:25.814Z,49.70
2018-09-05T16:32:53.430Z,51.00
2018-09-05T16:35:21.047Z,50.60
2018-09-05T16:37:48.693Z,51.40
2018-09-05T16:40:16.262Z,52.00
2018-09-05T16:42:43.867Z,52.50
2018-09-05T16:45:12.194Z,52.00
2018-09-05T16:47:40.047Z,52.10
2018-09-05T16:50:07.641Z,51.80
2018-09-05T16:52:35.215Z,50.60
2018-09-05T16:55:02.879Z,51.80
2018-09-05T16:57:30.398Z,53.40
2018-09-05T16:59:58.011Z,53.00
2018-09-05T17:02:25.598Z,53.10
2018-09-05T17:04:53.554Z,53.30
2018-09-05T17:07:21.249Z,53.70
2018-09-05T17:09:48.854Z,53.80
2018-09-05T17:12:16.473Z,53.30
2018-09-05T17:14:44.085Z,53.10
2018-09-05T17:17:11.658Z,52.60
2018-09-05T17:19:42.046Z,52.80
2018-09-05T17:22:10.148Z,53.90
2018-09-05T17:24:38.319Z,54.00
2018-09-05T17:27:07.374Z,54.90
2018-09-05T17:29:37.145Z,55.90
2018-09-05T17:32:07.666Z,55.70
2018-09-05T17:34:36.399Z,55.80
2018-09-05T17:37:04.960Z,56.00
2018-09-05T17:39:35.158Z,55.80
2018-09-05T17:42:05.061Z,56.50
2018-09-05T17:44:34.922Z,56.50
2018-09-05T17:47:05.711Z,56.30
2018-09-05T17:49:35.224Z,56.30
2018-09-05T17:52:03.799Z,56.60
2018-09-05T17:54:32.950Z,56.40
2018-09-05T17:57:06.097Z,56.60
2018-09-05T17:59:37.034Z,56.80
2018-09-05T18:02:05.234Z,57.00
2018-09-05T18:04:33.842Z,56.80
2018-09-05T18:07:03.072Z,56.80
2018-09-05T18:09:30.646Z,57.00
2018-09-05T18:11:58.331Z,57.80
2018-09-05T18:14:25.982Z,57.50
2018-09-05T18:16:53.569Z,57.90
2018-09-05T18:19:21.137Z,58.00
2018-09-05T18:21:48.760Z,57.90
2018-09-05T18:24:16.591Z,57.90
2018-09-05T18:26:44.137Z,58.20
2018-09-05T18:29:11.882Z,58.10
2018-09-05T18:31:39.450Z,58.10
2018-09-05T18:34:07.063Z,58.30
2018-09-05T18:36:34.635Z,58.50
2018-09-05T18:39:02.424Z,58.70
2018-09-05T18:41:29.990Z,59.00
2018-09-05T18:43:57.633Z,59.20
2018-09-05T18:46:25.170Z,59.30
2018-09-05T18:48:52.801Z,59.50
2018-09-05T18:51:20.374Z,59.90
2018-09-05T18:53:48.011Z,60.00
2018-09-05T18:56:15.655Z,60.00
2018-09-05T18:58:43.391Z,60.10
2018-09-05T19:01:11.069Z,60.70
2018-09-05T19:03:38.686Z,61.00
2018-09-05T19:06:06.369Z,61.10
2018-09-05T19:08:33.935Z,61.50
2018-09-05T19:11:01.569Z,61.70
2018-09-05T19:13:29.114Z,62.80
2018-09-05T19:15:56.762Z,62.30
2018-09-05T19:18:24.386Z,62.40
2018-09-05T19:20:52.077Z,62.70
2018-09-05T19:23:19.786Z,62.90
2018-09-05T19:25:47.690Z,63.10
2018-09-05T19:28:15.396Z,63.40
2018-09-05T19:30:43.046Z,63.80
2018-09-05T19:33:10.743Z,63.80
2018-09-05T19:35:40.871Z,64.00
2018-09-05T19:38:11.165Z,64.50
2018-09-05T19:40:39.484Z,64.50
2018-09-05T19:43:09.444Z,65.00
2018-09-05T19:45:39.128Z,64.90
2018-09-05T19:48:08.858Z,65.00
2018-09-05T19:50:37.936Z,65.50
2018-09-05T19:53:07.719Z,65.60
2018-09-05T19:55:37.745Z,65.70
2018-09-05T19:58:06.426Z,66.00
2018-09-05T20:00:36.026Z,66.20
2018-09-05T20:03:05.155Z,66.30
2018-09-05T20:05:36.424Z,66.40
2018-09-05T20:08:06.405Z,67.20
2018-09-05T20:10:34.442Z,67.20
2018-09-05T20:13:03.756Z,67.40
2018-09-05T20:15:34.602Z,67.70
2018-09-05T20:18:06.907Z,67.80
2018-09-05T20:20:36.870Z,67.30
2018-09-05T20:23:08.646Z,67.40
2018-09-05T20:25:38.158Z,67.30
2018-09-05T20:28:07.485Z,67.40
2018-09-05T20:30:41.356Z,67.50
2018-09-05T20:33:12.384Z,67.60
2018-09-05T20:35:43.035Z,67.90
2018-09-05T20:38:15.257Z,68.60
2018-09-05T20:40:46.344Z,68.20
2018-09-05T20:43:19.086Z,68.10
2018-09-05T20:45:48.889Z,68.60
2018-09-05T20:48:19.334Z,68.80
2018-09-05T20:50:52.372Z,69.00
2018-09-05T20:53:21.582Z,69.10
2018-09-05T20:55:55.883Z,68.80
2018-09-05T20:58:24.251Z,69.60
2018-09-05T21:00:54.163Z,69.00
2018-09-05T21:03:25.184Z,69.00
2018-09-05T21:05:56.854Z,68.80
2018-09-05T21:08:31.313Z,68.70
2018-09-05T21:11:04.716Z,68.90
2018-09-05T21:13:35.742Z,68.60
2018-09-05T21:16:10.448Z,68.70
2018-09-05T21:18:46.328Z,69.70
2018-09-05T21:21:18.467Z,68.90
2018-09-05T21:23:52.422Z,68.80
2018-09-05T21:26:21.023Z,69.00
2018-09-05T21:28:54.965Z,69.20
2018-09-05T21:31:28.875Z,69.20
2018-09-05T21:33:58.139Z,69.40
2018-09-05T21:36:27.473Z,69.10
2018-09-05T21:38:59.194Z,69.40
2018-09-05T21:41:32.681Z,69.40
2018-09-05T21:44:06.309Z,69.40
2018-09-05T21:46:38.658Z,69.60
2018-09-05T21:49:08.290Z,69.90
2018-09-05T21:51:44.981Z,70.10
2018-09-05T21:54:14.030Z,70.40
2018-09-05T21:56:44.802Z,70.50
2018-09-05T21:59:16.208Z,71.10
2018-09-05T22:01:48.764Z,71.30
2018-09-05T22:04:18.199Z,71.50
2018-09-05T22:06:50.480Z,71.20
2018-09-05T22:09:20.996Z,71.40
2018-09-05T22:11:55.679Z,71.40
2018-09-05T22:14:28.231Z,71.40
2018-09-05T22:16:58.035Z,72.00
2018-09-05T22:19:29.022Z,72.20
2018-09-05T22:22:02.560Z,72.30
2018-09-05T22:24:32.340Z,72.30
2018-09-05T22:27:02.246Z,72.40
2018-09-05T22:29:39.953Z,72.10
2018-09-05T22:32:09.258Z,72.10
2018-09-05T22:34:40.946Z,72.30
2018-09-05T22:37:12.833Z,72.50
2018-09-05T22:39:44.331Z,72.80
2018-09-05T22:42:15.391Z,72.70
2018-09-05T22:44:56.208Z,72.60
2018-09-05T22:51:46.758Z,72.90
2018-09-05T22:54:31.002Z,73.10
2018-09-05T22:57:16.791Z,73.50
2018-09-05T22:59:57.374Z,73.80
2018-09-05T23:06:58.913Z,74.00
2018-09-05T23:09:39.278Z,74.10
2018-09-05T23:14:25.458Z,74.50
2018-09-05T23:19:06.734Z,74.90
2018-09-05T23:21:37.715Z,75.20
2018-09-05T23:24:12.820Z,75.40
2018-09-05T23:26:45.617Z,75.30
2018-09-05T23:29:18.296Z,75.30
2018-09-05T23:31:51.147Z,75.60
2018-09-05T23:34:22.778Z,75.70
2018-09-05T23:36:54.763Z,76.20
2018-09-05T23:39:25.320Z,76.10
2018-09-05T23:41:56.316Z,76.10
2018-09-05T23:44:25.851Z,76.20
2018-09-05T23:46:56.242Z,76.20
2018-09-05T23:49:25.182Z,76.20
2018-09-05T23:51:58.872Z,76.30
2018-09-05T23:54:28.144Z,76.40
2018-09-05T23:56:59.362Z,76.60
2018-09-05T23:59:29.459Z,76.70
